Time;durP1;ratioP1;P1;durP2;ratioP2;P2;SDS_P1;SDS_P2;PMS_P1;PMS_P2;Temp;Humidity;BMP_temperature;BMP_pressure;BME280_temperature;BME280_humidity;BME280_pressure;Samples;Min_cycle;Max_cycle;Signal;HPM_P1;HPM_P2
2023/12/03 06:02:34;;;;;;;;;;;;;;;;;;5022211;23;19929;-46
2023/12/03 06:05:00;;;;;;;;;;;;;;;;;;4993126;28;20347;-46
2023/12/03 06:07:26;;;;;;;;;;;;;;;;;;4992286;28;19910;-45
2023/12/03 06:09:52;;;;;;;;;;;;;;;;;;4992685;28;20307;-45
2023/12/03 06:12:17;;;;;;;;;;;;;;;;;;4992467;28;20403;-47
2023/12/03 06:14:43;;;;;;;;;;;;;;;;;;4992192;28;19928;-48
2023/12/03 06:17:09;;;;;;;;;;;;;;;;;;4992353;28;19930;-45
2023/12/03 06:19:35;;;;;;;;;;;;;;;;;;4992929;28;20436;-46
2023/12/03 06:22:01;;;;;;;;;;;;;;;;;;4991278;28;19910;-48
2023/12/03 06:24:27;;;;;;;;;;;;;;;;;;4991050;28;20364;-46
2023/12/03 06:26:53;;;;;;;;;;;;;;;;;;4992066;28;19910;-46
2023/12/03 06:29:19;;;;;;;;;;;;;;;;;;4992192;28;20004;-45
2023/12/03 06:31:45;;;;;;;;;;;;;;;;;;4992116;28;19921;-46
2023/12/03 06:34:12;;;;;;;;;;;;;;;;;;4992186;28;19914;-45
2023/12/03 06:36:37;;;;;;;;;;;;;;;;;;4991999;28;19917;-49
2023/12/03 06:39:03;;;;;;;;;;;;;;;;;;4992433;28;20269;-45
2023/12/03 06:41:29;;;;;;;;;;;;;;;;;;4992235;28;19910;-46
2023/12/03 06:43:55;;;;;;;;;;;;;;;;;;4991709;28;20420;-46
2023/12/03 06:46:21;;;;;;;;;;;;;;;;;;4991421;28;19917;-46
2023/12/03 06:48:47;;;;;;;;;;;;;;;;;;4999202;28;19937;-48
2023/12/03 06:51:13;;;;;;;;;;;;;;;;;;5012726;28;19980;-47
2023/12/03 06:53:39;;;;;;;;;;;;;;;;;;5012671;28;19914;-47
2023/12/03 06:56:05;;;;;;;;;;;;;;;;;;4997723;28;20285;-46
2023/12/03 06:58:31;;;;;;;;;;;;;;;;;;4990110;28;20415;-47
2023/12/03 07:00:57;;;;;;;;;;;;;;;;;;4991429;28;20083;-46
2023/12/03 07:03:23;;;;;;;;;;;;;;;;;;4991603;28;20355;-48
2023/12/03 07:05:48;;;;;;;;;;;;;;;;;;4991303;28;19916;-46
2023/12/03 07:08:14;;;;;;;;;;;;;;;;;;4991481;28;19921;-47
2023/12/03 07:10:40;;;;;;;;;;;;;;;;;;4991280;28;19937;-48
2023/12/03 07:13:06;;;;;;;;;;;;;;;;;;4991651;28;19910;-48
2023/12/03 07:15:32;;;;;;;;;;;;;;;;;;4991498;28;19913;-46
2023/12/03 07:17:58;;;;;;;;;;;;;;;;;;4989006;28;20632;-49
2023/12/03 07:20:25;;;;;;;;;;;;;;;;;;4989803;28;19909;-47
2023/12/03 07:22:51;;;;;;;;;;;;;;;;;;5002897;28;19910;-46
2023/12/03 07:25:17;;;;;;;;;;;;;;;;;;5009033;28;19916;-48
2023/12/03 07:27:43;;;;;;;;;;;;;;;;;;5008710;28;19905;-47
2023/12/03 07:30:09;;;;;;;;;;;;;;;;;;5008884;28;19910;-48
2023/12/03 07:32:35;;;;;;;;;;;;;;;;;;5009307;28;19913;-49
2023/12/03 07:35:01;;;;;;;;;;;;;;;;;;5008621;28;20407;-49
2023/12/03 07:37:27;;;;;;;;;;;;;;;;;;5008561;28;20295;-50
2023/12/03 07:39:52;;;;;;;;;;;;;;;;;;5008635;28;19916;-45
2023/12/03 07:42:18;;;;;;;;;;;;;;;;;;5008705;28;19909;-47
2023/12/03 07:44:44;;;;;;;;;;;;;;;;;;5008725;28;19910;-49
2023/12/03 07:47:10;;;;;;;;;;;;;;;;;;5008604;28;19919;-49
2023/12/03 07:49:36;;;;;;;;;;;;;;;;;;5009250;28;20028;-49
2023/12/03 07:52:02;;;;;;;;;;;;;;;;;;5009050;28;19920;-48
2023/12/03 07:54:28;;;;;;;;;;;;;;;;;;5008375;28;19972;-47
2023/12/03 07:56:54;;;;;;;;;;;;;;;;;;5008270;28;19909;-50
2023/12/03 07:59:20;;;;;;;;;;;;;;;;;;5008285;28;20364;-49
2023/12/03 08:01:45;;;;;;;;;;;;;;;;;;5007977;28;19917;-49
2023/12/03 08:04:11;;;;;;;;;;;;;;;;;;5008251;28;19909;-47
2023/12/03 08:06:37;;;;;;;;;;;;;;;;;;5009115;28;20008;-46
2023/12/03 08:09:03;;;;;;;;;;;;;;;;;;5008721;28;19961;-46
2023/12/03 08:11:29;;;;;;;;;;;;;;;;;;5008194;28;19972;-47
2023/12/03 08:13:55;;;;;;;;;;;;;;;;;;5008285;28;19910;-49
2023/12/03 08:16:21;;;;;;;;;;;;;;;;;;5008214;28;19909;-47
2023/12/03 08:18:47;;;;;;;;;;;;;;;;;;5007975;28;20399;-50
2023/12/03 08:21:13;;;;;;;;;;;;;;;;;;5008345;28;20334;-46
2023/12/03 08:23:40;;;;;;;;;;;;;;;;;;5007982;28;20000;-49
2023/12/03 08:26:06;;;;;;;;;;;;;;;;;;5008644;28;20048;-49
2023/12/03 08:28:32;;;;;;;;;;;;;;;;;;5008079;28;19992;-46
2023/12/03 08:30:58;;;;;;;;;;;;;;;;;;5008098;28;19917;-49
2023/12/03 08:33:23;;;;;;;;;;;;;;;;;;4987179;28;19918;-49
2023/12/03 08:35:49;;;;;;;;;;;;;;;;;;4987000;28;20276;-49
2023/12/03 08:38:15;;;;;;;;;;;;;;;;;;4989118;28;19910;-50
2023/12/03 08:40:41;;;;;;;;;;;;;;;;;;4989392;28;19910;-48
2023/12/03 08:43:07;;;;;;;;;;;;;;;;;;4989879;28;19913;-48
2023/12/03 08:45:33;;;;;;;;;;;;;;;;;;4987504;28;19944;-50
2023/12/03 08:48:02;;;;;;;;;;;;;;;;;;4990466;28;20976;-45
2023/12/03 08:50:31;;;;;;;;;;;;;;;;;;4991610;28;19920;-49
2023/12/03 08:52:57;;;;;;;;;;;;;;;;;;4992068;28;19913;-49
2023/12/03 08:55:23;;;;;;;;;;;;;;;;;;4992182;28;19986;-47
2023/12/03 08:57:49;;;;;;;;;;;;;;;;;;4990828;28;20464;-47
2023/12/03 09:00:15;;;;;;;;;;;;;;;;;;4991248;28;19913;-51
2023/12/03 09:02:41;;;;;;;;;;;;;;;;;;4991964;28;19917;-49
2023/12/03 09:05:07;;;;;;;;;;;;;;;;;;4991185;28;19922;-48
2023/12/03 09:07:33;;;;;;;;;;;;;;;;;;4989230;28;19968;-49
2023/12/03 09:12:35;;;;;;;;;;;;;;;;;;5195085;23;19928;-42
2023/12/03 09:15:01;;;;;;;;;;;;;;;;;;4992813;28;19914;-42
2023/12/03 09:17:27;;;;;;;;;;;;;;;;;;4988915;28;19914;-42
2023/12/03 09:19:52;;;;;;;;;;;;;;;;;;4979888;28;19910;-42
2023/12/03 09:22:18;;;;;;;;;;;;;;;;;;4983767;28;20359;-43
2023/12/03 09:24:44;;;;;;;;;;;;;;;;;;4978763;28;19916;-44
2023/12/03 09:27:10;;;;;;;;;;;;;;;;;;4983576;28;20422;-42
2023/12/03 09:29:36;;;;;;;;;;;;;;;;;;4983148;28;19969;-42
2023/12/03 09:32:04;;;;;;;;;;;;;;;;;;4988616;28;20340;-43
2023/12/03 09:34:30;;;;;;;;;;;;;;;;;;4984432;28;20388;-42
2023/12/03 09:36:56;;;;;;;;;;;;;;;;;;4978679;28;19952;-42
2023/12/03 09:39:22;;;;;;;;;;;;;;;;;;4973379;28;20008;-42
2023/12/03 09:41:48;;;;;;;;;;;;;;;;;;4992394;28;20025;-41
2023/12/03 09:44:14;;;;;;;;;;;;;;;;;;4990510;28;19920;-42
2023/12/03 09:46:40;;;;;;;;;;;;;;;;;;4988613;28;19914;-41
2023/12/03 09:49:07;;;;;;;;;;;;;;;;;;4985841;28;20284;-42
2023/12/03 09:51:33;;;;;;;;;;;;;;;;;;4972601;28;20281;-41
2023/12/03 09:53:59;;;;;;;;;;;;;;;;;;4985291;28;19917;-41
2023/12/03 09:56:25;;;;;;;;;;;;;;;;;;4990081;28;20406;-41
2023/12/03 09:58:51;;;;;;;;;;;;;;;;;;4990101;28;20528;-41
2023/12/03 10:01:17;;;;;;;;;;;;;;;;;;4992164;28;19996;-41
2023/12/03 10:03:43;;;;;;;;;;;;;;;;;;4990766;28;19914;-41
2023/12/03 10:06:09;;;;;;;;;;;;;;;;;;4991879;28;19914;-41
2023/12/03 10:08:35;;;;;;;;;;;;;;;;;;4992626;28;20439;-41
2023/12/03 10:11:04;;;;;;;;;;;;;;;;;;4974452;28;20431;-41
2023/12/03 10:13:30;;;;;;;;;;;;;;;;;;4990907;28;19971;-42
2023/12/03 10:15:56;;;;;;;;;;;;;;;;;;4989872;28;19925;-41
2023/12/03 10:18:22;;;;;;;;;;;;;;;;;;4990323;28;19910;-41
2023/12/03 10:20:48;;;;;;;;;;;;;;;;;;4988793;28;20000;-42
2023/12/03 10:23:14;;;;;;;;;;;;;;;;;;4988176;28;19925;-41
2023/12/03 10:25:40;;;;;;;;;;;;;;;;;;4988893;28;19914;-41
2023/12/03 10:28:06;;;;;;;;;;;;;;;;;;4981542;28;20415;-41
2023/12/03 10:30:32;;;;;;;;;;;;;;;;;;4982663;28;19957;-41
2023/12/03 10:32:58;;;;;;;;;;;;;;;;;;4983428;28;19921;-41
2023/12/03 10:35:24;;;;;;;;;;;;;;;;;;4987178;28;19925;-40
2023/12/03 10:37:50;;;;;;;;;;;;;;;;;;4990390;28;19914;-41
2023/12/03 10:40:16;;;;;;;;;;;;;;;;;;4987966;28;19913;-41
2023/12/03 10:42:42;;;;;;;;;;;;;;;;;;4987210;28;19933;-41
2023/12/03 10:45:08;;;;;;;;;;;;;;;;;;4989893;28;19918;-41
2023/12/03 10:47:34;;;;;;;;;;;;;;;;;;4983994;28;20380;-41
2023/12/03 10:50:00;;;;;;;;;;;;;;;;;;4975389;28;19918;-41
2023/12/03 10:52:26;;;;;;;;;;;;;;;;;;4959838;28;20013;-41
2023/12/03 10:54:52;;;;;;;;;;;;;;;;;;4972462;28;19997;-40
2023/12/03 10:57:17;;;;;;;;;;;;;;;;;;4972561;28;19921;-41
2023/12/03 10:59:43;;;;;;;;;;;;;;;;;;4975660;28;19997;-42
2023/12/03 11:02:11;;;;;;;;;;;;;;;;;;4984732;28;19918;-41
2023/12/03 11:04:37;;;;;;;;;;;;;;;;;;4987606;28;19910;-41
2023/12/03 11:07:03;;;;;;;;;;;;;;;;;;4991748;28;20280;-40
2023/12/03 11:09:28;;;;;;;;;;;;;;;;;;4990954;28;19910;-40
2023/12/03 11:11:54;;;;;;;;;;;;;;;;;;4990526;28;19918;-40
2023/12/03 11:14:20;;;;;;;;;;;;;;;;;;4984899;28;19972;-40
2023/12/03 11:16:46;;;;;;;;;;;;;;;;;;4982295;28;19960;-41
2023/12/03 11:19:12;;;;;;;;;;;;;;;;;;4972303;28;20005;-41
2023/12/03 11:21:38;;;;;;;;;;;;;;;;;;4983731;28;19914;-41
2023/12/03 11:24:04;;;;;;;;;;;;;;;;;;4990966;28;19910;-41
2023/12/03 11:26:30;;;;;;;;;;;;;;;;;;4991223;28;20383;-41
2023/12/03 11:28:57;;;;;;;;;;;;;;;;;;4991163;28;19917;-42
2023/12/03 11:31:23;;;;;;;;;;;;;;;;;;4988167;28;20045;-42
2023/12/03 11:33:50;;;;;;;;;;;;;;;;;;4991310;28;20005;-43
2023/12/03 11:36:15;;;;;;;;;;;;;;;;;;4991760;28;19910;-41
2023/12/03 11:38:41;;;;;;;;;;;;;;;;;;4990239;28;19932;-41
2023/12/03 11:41:07;;;;;;;;;;;;;;;;;;4976407;28;19929;-42
2023/12/03 11:43:33;;;;;;;;;;;;;;;;;;4990344;28;19992;-42
2023/12/03 11:45:59;;;;;;;;;;;;;;;;;;4991195;28;19916;-42
2023/12/03 11:48:29;;;;;;;;;;;;;;;;;;4972851;28;20001;-42
2023/12/03 11:50:56;;;;;;;;;;;;;;;;;;4978549;28;19914;-42
2023/12/03 11:53:22;;;;;;;;;;;;;;;;;;4989098;28;19914;-41
2023/12/03 11:55:49;;;;;;;;;;;;;;;;;;4991324;28;20395;-41
2023/12/03 11:58:15;;;;;;;;;;;;;;;;;;4990787;28;19910;-42
2023/12/03 12:00:40;;;;;;;;;;;;;;;;;;4988884;28;20202;-42
2023/12/03 12:03:06;;;;;;;;;;;;;;;;;;4982799;28;19914;-42
2023/12/03 12:05:32;;;;;;;;;;;;;;;;;;4988339;28;19910;-44
2023/12/03 12:07:58;;;;;;;;;;;;;;;;;;4971016;28;19932;-43
2023/12/03 12:10:24;;;;;;;;;;;;;;;;;;4987619;28;19948;-43
2023/12/03 12:12:50;;;;;;;;;;;;;;;;;;4987614;28;19918;-44
2023/12/03 12:15:16;;;;;;;;;;;;;;;;;;4985879;28;20372;-42
2023/12/03 12:17:42;;;;;;;;;;;;;;;;;;4977910;28;19921;-43
2023/12/03 12:20:08;;;;;;;;;;;;;;;;;;4969937;28;19948;-43
2023/12/03 12:22:34;;;;;;;;;;;;;;;;;;4987482;28;19913;-43
2023/12/03 12:25:00;;;;;;;;;;;;;;;;;;4986952;28;19910;-44
2023/12/03 12:27:26;;;;;;;;;;;;;;;;;;4986239;28;19914;-44
2023/12/03 12:29:52;;;;;;;;;;;;;;;;;;4987708;28;19914;-43
2023/12/03 12:32:18;;;;;;;;;;;;;;;;;;4987574;28;20381;-47
2023/12/03 12:34:43;;;;;;;;;;;;;;;;;;4988305;28;19921;-43
2023/12/03 12:37:09;;;;;;;;;;;;;;;;;;4986627;28;19917;-44
2023/12/03 12:39:35;;;;;;;;;;;;;;;;;;4984300;28;20007;-43
2023/12/03 12:42:01;;;;;;;;;;;;;;;;;;4986480;28;19921;-46
2023/12/03 12:44:27;;;;;;;;;;;;;;;;;;4977664;28;19945;-44
2023/12/03 12:46:53;;;;;;;;;;;;;;;;;;4969985;28;19913;-44
2023/12/03 12:49:19;;;;;;;;;;;;;;;;;;4985749;28;20010;-47
2023/12/03 12:51:45;;;;;;;;;;;;;;;;;;4981170;28;19921;-46
2023/12/03 12:54:12;;;;;;;;;;;;;;;;;;4987287;28;19914;-46
2023/12/03 12:56:38;;;;;;;;;;;;;;;;;;4986335;28;20363;-44
2023/12/03 12:59:04;;;;;;;;;;;;;;;;;;4986171;28;19957;-45
2023/12/03 13:01:30;;;;;;;;;;;;;;;;;;4984646;28;19914;-47
2023/12/03 13:03:56;;;;;;;;;;;;;;;;;;4986003;28;19914;-46
2023/12/03 13:06:22;;;;;;;;;;;;;;;;;;4984931;28;19918;-46
2023/12/03 13:08:48;;;;;;;;;;;;;;;;;;4967191;28;19961;-44
2023/12/03 13:11:13;;;;;;;;;;;;;;;;;;4983963;28;19917;-45
2023/12/03 13:13:39;;;;;;;;;;;;;;;;;;4984972;28;19921;-44
2023/12/03 13:16:05;;;;;;;;;;;;;;;;;;4984634;28;19957;-44
2023/12/03 13:18:31;;;;;;;;;;;;;;;;;;4986012;28;19920;-44
2023/12/03 13:20:57;;;;;;;;;;;;;;;;;;4983372;28;20332;-44
2023/12/03 13:23:23;;;;;;;;;;;;;;;;;;4982683;28;19976;-44
2023/12/03 13:25:49;;;;;;;;;;;;;;;;;;4986003;28;19917;-46
2023/12/03 13:28:15;;;;;;;;;;;;;;;;;;4983791;28;19933;-45
2023/12/03 13:30:41;;;;;;;;;;;;;;;;;;4965819;28;19918;-46
2023/12/03 13:33:07;;;;;;;;;;;;;;;;;;4985812;28;20226;-44
2023/12/03 13:35:33;;;;;;;;;;;;;;;;;;4984497;28;19965;-45
2023/12/03 13:37:59;;;;;;;;;;;;;;;;;;4988517;28;19960;-46
2023/12/03 13:40:25;;;;;;;;;;;;;;;;;;4970838;28;20024;-45
2023/12/03 13:42:53;;;;;;;;;;;;;;;;;;4988236;28;19917;-44
2023/12/03 13:45:19;;;;;;;;;;;;;;;;;;4985060;28;19918;-45
2023/12/03 13:47:45;;;;;;;;;;;;;;;;;;4964916;28;19917;-44
2023/12/03 13:50:11;;;;;;;;;;;;;;;;;;4986160;28;20522;-44
2023/12/03 13:52:37;;;;;;;;;;;;;;;;;;4986977;28;19918;-44
2023/12/03 13:55:03;;;;;;;;;;;;;;;;;;4988138;28;20219;-45
2023/12/03 13:57:30;;;;;;;;;;;;;;;;;;4987318;28;19956;-44
2023/12/03 13:59:56;;;;;;;;;;;;;;;;;;4987292;28;19953;-43
2023/12/03 14:02:22;;;;;;;;;;;;;;;;;;4984823;28;19914;-43
2023/12/03 14:04:49;;;;;;;;;;;;;;;;;;4984687;28;20237;-43
2023/12/03 14:07:16;;;;;;;;;;;;;;;;;;4988820;28;20444;-43
2023/12/03 14:09:43;;;;;;;;;;;;;;;;;;4982617;28;20450;-44
2023/12/03 14:12:09;;;;;;;;;;;;;;;;;;4986320;28;19918;-43
2023/12/03 14:14:35;;;;;;;;;;;;;;;;;;4986807;28;19949;-42
2023/12/03 14:17:03;;;;;;;;;;;;;;;;;;4989288;28;19914;-43
2023/12/03 14:19:29;;;;;;;;;;;;;;;;;;4985667;28;19997;-42
2023/12/03 14:21:54;;;;;;;;;;;;;;;;;;4987384;28;20013;-43
2023/12/03 14:24:20;;;;;;;;;;;;;;;;;;4989980;28;19921;-43
2023/12/03 14:26:46;;;;;;;;;;;;;;;;;;4987582;28;20447;-44
2023/12/03 14:29:13;;;;;;;;;;;;;;;;;;4965565;28;19918;-43
2023/12/03 14:31:39;;;;;;;;;;;;;;;;;;4988309;28;19924;-42
2023/12/03 14:34:05;;;;;;;;;;;;;;;;;;4986620;28;19937;-43
2023/12/03 14:36:31;;;;;;;;;;;;;;;;;;4986362;28;20013;-42
2023/12/03 14:38:57;;;;;;;;;;;;;;;;;;4987994;28;19949;-42
2023/12/03 14:41:23;;;;;;;;;;;;;;;;;;4985653;28;20373;-43
2023/12/03 14:43:49;;;;;;;;;;;;;;;;;;4986220;28;19914;-42
2023/12/03 14:46:14;;;;;;;;;;;;;;;;;;4966209;28;20375;-43
2023/12/03 14:48:40;;;;;;;;;;;;;;;;;;4960743;28;20016;-42
2023/12/03 14:51:06;;;;;;;;;;;;;;;;;;4986646;28;19914;-41
2023/12/03 14:53:32;;;;;;;;;;;;;;;;;;4984556;28;19914;-42
2023/12/03 14:55:58;;;;;;;;;;;;;;;;;;4988643;28;19964;-42
2023/12/03 14:58:24;;;;;;;;;;;;;;;;;;4988669;28;19945;-42
2023/12/03 15:00:50;;;;;;;;;;;;;;;;;;4984936;28;20367;-42
2023/12/03 15:03:16;;;;;;;;;;;;;;;;;;4985138;28;19922;-42
2023/12/03 15:05:41;;;;;;;;;;;;;;;;;;4986923;28;20388;-42
2023/12/03 15:08:08;;;;;;;;;;;;;;;;;;4985518;28;19924;-42
2023/12/03 15:10:35;;;;;;;;;;;;;;;;;;4984662;28;19918;-42
2023/12/03 15:13:01;;;;;;;;;;;;;;;;;;4965142;28;20420;-42
2023/12/03 15:15:27;;;;;;;;;;;;;;;;;;4988063;28;19945;-42
2023/12/03 15:17:53;;;;;;;;;;;;;;;;;;4983082;28;19913;-42
2023/12/03 15:20:19;;;;;;;;;;;;;;;;;;4975014;28;19922;-42
2023/12/03 15:22:45;;;;;;;;;;;;;;;;;;4980042;28;19918;-41
2023/12/03 15:25:12;;;;;;;;;;;;;;;;;;4981425;28;20459;-42
2023/12/03 15:27:38;;;;;;;;;;;;;;;;;;4985596;28;19941;-41
2023/12/03 15:30:04;;;;;;;;;;;;;;;;;;4985595;28;19964;-41
2023/12/03 15:32:31;;;;;;;;;;;;;;;;;;4983256;28;19918;-40
2023/12/03 15:34:57;;;;;;;;;;;;;;;;;;4987408;28;19949;-41
2023/12/03 15:37:23;;;;;;;;;;;;;;;;;;4982613;28;19914;-41
2023/12/03 15:39:49;;;;;;;;;;;;;;;;;;4981731;28;19937;-41
2023/12/03 15:42:15;;;;;;;;;;;;;;;;;;4984834;28;20040;-41
2023/12/03 15:44:41;;;;;;;;;;;;;;;;;;4983194;28;20009;-41
2023/12/03 15:47:07;;;;;;;;;;;;;;;;;;4983484;28;20458;-41
2023/12/03 15:49:33;;;;;;;;;;;;;;;;;;4983331;28;19921;-40
2023/12/03 15:51:59;;;;;;;;;;;;;;;;;;4965509;28;19960;-41
2023/12/03 15:54:25;;;;;;;;;;;;;;;;;;4963942;28;20053;-41
2023/12/03 15:56:53;;;;;;;;;;;;;;;;;;4983549;28;19914;-41
2023/12/03 15:59:19;;;;;;;;;;;;;;;;;;4983574;28;20290;-41
2023/12/03 16:01:45;;;;;;;;;;;;;;;;;;4983607;28;19918;-40
2023/12/03 16:04:11;;;;;;;;;;;;;;;;;;4965668;28;19918;-41
2023/12/03 16:06:37;;;;;;;;;;;;;;;;;;4981629;28;19922;-40
2023/12/03 16:09:03;;;;;;;;;;;;;;;;;;4985424;28;20068;-41
2023/12/03 16:11:29;;;;;;;;;;;;;;;;;;4987124;28;19918;-40
2023/12/03 16:13:55;;;;;;;;;;;;;;;;;;4980984;28;19914;-40
2023/12/03 16:16:21;;;;;;;;;;;;;;;;;;4984517;28;19925;-40
2023/12/03 16:18:47;;;;;;;;;;;;;;;;;;4981016;28;20028;-41
2023/12/03 16:21:13;;;;;;;;;;;;;;;;;;4980731;28;19920;-40
2023/12/03 16:23:39;;;;;;;;;;;;;;;;;;4982449;28;19968;-40
2023/12/03 16:26:04;;;;;;;;;;;;;;;;;;4983222;28;20004;-41
2023/12/03 16:28:30;;;;;;;;;;;;;;;;;;4982382;28;19914;-41
2023/12/03 16:30:56;;;;;;;;;;;;;;;;;;4982427;28;19921;-41
2023/12/03 16:33:22;;;;;;;;;;;;;;;;;;4982502;28;20340;-41
2023/12/03 16:35:48;;;;;;;;;;;;;;;;;;4981894;28;19926;-41
2023/12/03 16:38:14;;;;;;;;;;;;;;;;;;4980581;28;20011;-41
2023/12/03 16:40:40;;;;;;;;;;;;;;;;;;4964599;28;19921;-41
2023/12/03 16:43:06;;;;;;;;;;;;;;;;;;4985026;28;19929;-40
2023/12/03 16:45:32;;;;;;;;;;;;;;;;;;4981714;28;19925;-40
2023/12/03 16:47:58;;;;;;;;;;;;;;;;;;4982676;28;19917;-40
2023/12/03 16:50:24;;;;;;;;;;;;;;;;;;4984508;28;19936;-40
2023/12/03 16:52:50;;;;;;;;;;;;;;;;;;4986181;28;20423;-40
2023/12/03 16:55:16;;;;;;;;;;;;;;;;;;4986507;28;19922;-40
2023/12/03 16:57:42;;;;;;;;;;;;;;;;;;4984562;28;20376;-40
2023/12/03 17:00:08;;;;;;;;;;;;;;;;;;4985370;28;20557;-40
2023/12/03 17:02:34;;;;;;;;;;;;;;;;;;4986080;28;19972;-40
2023/12/03 17:05:00;;;;;;;;;;;;;;;;;;4985448;28;19918;-40
2023/12/03 17:07:26;;;;;;;;;;;;;;;;;;4986420;28;19914;-40
2023/12/03 17:09:52;;;;;;;;;;;;;;;;;;4990417;28;19997;-40
2023/12/03 17:12:18;;;;;;;;;;;;;;;;;;4987452;28;19925;-40
2023/12/03 17:14:44;;;;;;;;;;;;;;;;;;4989152;28;19949;-40
2023/12/03 17:17:10;;;;;;;;;;;;;;;;;;4990595;28;19919;-40
2023/12/03 17:19:35;;;;;;;;;;;;;;;;;;4985688;28;20367;-40
2023/12/03 17:22:01;;;;;;;;;;;;;;;;;;4988980;28;19913;-40
2023/12/03 17:24:27;;;;;;;;;;;;;;;;;;4990619;28;20529;-40
2023/12/03 17:26:55;;;;;;;;;;;;;;;;;;4987578;28;21878;-40
2023/12/03 17:29:21;;;;;;;;;;;;;;;;;;4990228;28;19913;-40
2023/12/03 17:31:47;;;;;;;;;;;;;;;;;;4989028;28;19929;-40
2023/12/03 17:34:13;;;;;;;;;;;;;;;;;;4989956;28;20430;-40
2023/12/03 17:36:39;;;;;;;;;;;;;;;;;;4990449;28;19913;-40
2023/12/03 17:39:05;;;;;;;;;;;;;;;;;;4991370;28;19916;-40
2023/12/03 17:41:31;;;;;;;;;;;;;;;;;;4969449;28;19921;-41
2023/12/03 17:43:57;;;;;;;;;;;;;;;;;;4988812;28;20144;-40
2023/12/03 17:46:23;;;;;;;;;;;;;;;;;;4989366;28;20262;-40
2023/12/03 17:48:49;;;;;;;;;;;;;;;;;;4988122;28;19953;-40
2023/12/03 17:51:15;;;;;;;;;;;;;;;;;;4988707;28;19920;-40
2023/12/03 17:53:41;;;;;;;;;;;;;;;;;;4971296;28;19913;-40
2023/12/03 17:56:07;;;;;;;;;;;;;;;;;;4989822;28;19921;-40
2023/12/03 17:58:32;;;;;;;;;;;;;;;;;;4990540;28;19910;-40
2023/12/03 18:00:58;;;;;;;;;;;;;;;;;;4986131;28;19914;-40
2023/12/03 18:03:24;;;;;;;;;;;;;;;;;;4986847;28;20008;-40
2023/12/03 18:05:53;;;;;;;;;;;;;;;;;;4987356;28;20376;-41
2023/12/03 18:08:19;;;;;;;;;;;;;;;;;;4985874;28;19926;-41
2023/12/03 18:10:46;;;;;;;;;;;;;;;;;;4988401;28;19914;-41
2023/12/03 18:13:12;;;;;;;;;;;;;;;;;;4968671;28;20297;-41
2023/12/03 18:15:38;;;;;;;;;;;;;;;;;;4985631;28;19964;-41
2023/12/03 18:18:04;;;;;;;;;;;;;;;;;;4986979;28;19920;-41
2023/12/03 18:20:30;;;;;;;;;;;;;;;;;;4984563;28;19936;-41
2023/12/03 18:22:56;;;;;;;;;;;;;;;;;;4986189;28;19949;-41
2023/12/03 18:25:21;;;;;;;;;;;;;;;;;;4984128;28;20222;-41
2023/12/03 18:27:48;;;;;;;;;;;;;;;;;;4973439;28;20392;-41
2023/12/03 18:30:15;;;;;;;;;;;;;;;;;;4983192;28;20395;-41
2023/12/03 18:32:41;;;;;;;;;;;;;;;;;;4967455;28;19925;-41
2023/12/03 18:35:08;;;;;;;;;;;;;;;;;;4986908;28;19918;-41
2023/12/03 18:37:34;;;;;;;;;;;;;;;;;;4987964;28;20284;-41
2023/12/03 18:40:00;;;;;;;;;;;;;;;;;;4989361;28;19964;-41
2023/12/03 18:42:26;;;;;;;;;;;;;;;;;;4987143;28;19920;-41
2023/12/03 18:44:52;;;;;;;;;;;;;;;;;;4969168;28;19914;-41
2023/12/03 18:47:18;;;;;;;;;;;;;;;;;;4980640;28;19914;-41
2023/12/03 18:49:44;;;;;;;;;;;;;;;;;;4986628;28;19910;-41
2023/12/03 18:52:10;;;;;;;;;;;;;;;;;;4965174;28;20001;-41
2023/12/03 18:54:40;;;;;;;;;;;;;;;;;;4979448;28;20108;-41
2023/12/03 18:57:06;;;;;;;;;;;;;;;;;;4981295;28;20389;-41
2023/12/03 18:59:32;;;;;;;;;;;;;;;;;;4983693;28;20089;-41
2023/12/03 19:02:00;;;;;;;;;;;;;;;;;;4985718;28;19914;-41
2023/12/03 19:04:26;;;;;;;;;;;;;;;;;;4985298;28;20304;-41
2023/12/03 19:06:52;;;;;;;;;;;;;;;;;;4983557;28;19922;-41
2023/12/03 19:09:18;;;;;;;;;;;;;;;;;;4966600;28;19972;-40
2023/12/03 19:11:47;;;;;;;;;;;;;;;;;;4982317;28;20005;-40
2023/12/03 19:14:14;;;;;;;;;;;;;;;;;;4986871;28;19925;-41
2023/12/03 19:16:40;;;;;;;;;;;;;;;;;;4963528;28;20440;-40
2023/12/03 19:19:06;;;;;;;;;;;;;;;;;;4981501;28;19913;-40
2023/12/03 19:21:33;;;;;;;;;;;;;;;;;;4982602;28;20466;-40
2023/12/03 19:24:00;;;;;;;;;;;;;;;;;;4982834;28;20304;-41
2023/12/03 19:26:25;;;;;;;;;;;;;;;;;;4958899;28;19921;-40
2023/12/03 19:28:51;;;;;;;;;;;;;;;;;;4984878;28;19918;-41
2023/12/03 19:31:17;;;;;;;;;;;;;;;;;;4965475;28;19918;-41
2023/12/03 19:33:43;;;;;;;;;;;;;;;;;;4983837;28;19917;-41
2023/12/03 19:36:09;;;;;;;;;;;;;;;;;;4983531;28;19964;-41
2023/12/03 19:38:35;;;;;;;;;;;;;;;;;;4984483;28;19968;-41
2023/12/03 19:41:02;;;;;;;;;;;;;;;;;;4983988;28;20008;-41
2023/12/03 19:43:28;;;;;;;;;;;;;;;;;;4982463;28;20447;-41
2023/12/03 19:45:54;;;;;;;;;;;;;;;;;;4969538;28;20464;-41
2023/12/03 19:48:23;;;;;;;;;;;;;;;;;;4983915;28;20012;-41
2023/12/03 19:50:49;;;;;;;;;;;;;;;;;;4966517;28;20004;-41
2023/12/03 19:53:14;;;;;;;;;;;;;;;;;;4985396;28;20044;-41
2023/12/03 19:55:40;;;;;;;;;;;;;;;;;;4987465;28;19914;-41
2023/12/03 19:58:06;;;;;;;;;;;;;;;;;;4983366;28;19969;-41
2023/12/03 20:00:32;;;;;;;;;;;;;;;;;;4985532;28;19917;-41
2023/12/03 20:02:58;;;;;;;;;;;;;;;;;;4982645;28;20142;-41
2023/12/03 20:05:24;;;;;;;;;;;;;;;;;;4982389;28;19957;-41
2023/12/03 20:07:50;;;;;;;;;;;;;;;;;;4970671;28;19953;-41
2023/12/03 20:10:16;;;;;;;;;;;;;;;;;;4978174;28;19914;-41
2023/12/03 20:12:42;;;;;;;;;;;;;;;;;;4977684;28;19924;-40
2023/12/03 20:15:08;;;;;;;;;;;;;;;;;;4987340;28;19920;-41
2023/12/03 20:17:34;;;;;;;;;;;;;;;;;;4968707;28;19914;-41
2023/12/03 20:20:00;;;;;;;;;;;;;;;;;;4985348;28;19914;-41
2023/12/03 20:22:26;;;;;;;;;;;;;;;;;;4985323;28;19914;-41
2023/12/03 20:24:52;;;;;;;;;;;;;;;;;;4985955;28;19973;-41
2023/12/03 20:27:19;;;;;;;;;;;;;;;;;;4985656;28;19918;-41
2023/12/03 20:29:45;;;;;;;;;;;;;;;;;;4983863;28;19968;-41
2023/12/03 20:32:11;;;;;;;;;;;;;;;;;;4984783;28;19921;-41
2023/12/03 20:34:37;;;;;;;;;;;;;;;;;;4984449;28;19917;-41
2023/12/03 20:37:07;;;;;;;;;;;;;;;;;;4985727;28;19937;-41
2023/12/03 20:39:32;;;;;;;;;;;;;;;;;;4984615;28;19972;-41
2023/12/03 20:42:00;;;;;;;;;;;;;;;;;;4985268;28;19913;-41
2023/12/03 20:44:25;;;;;;;;;;;;;;;;;;4986641;28;20005;-41
2023/12/03 20:46:51;;;;;;;;;;;;;;;;;;4985816;28;20052;-41
2023/12/03 20:49:17;;;;;;;;;;;;;;;;;;4985384;28;19914;-41
2023/12/03 20:51:43;;;;;;;;;;;;;;;;;;4984020;28;19914;-45
2023/12/03 20:54:09;;;;;;;;;;;;;;;;;;4981678;28;19941;-45
2023/12/03 20:56:35;;;;;;;;;;;;;;;;;;4964943;28;20003;-45
2023/12/03 20:59:01;;;;;;;;;;;;;;;;;;4983381;28;19914;-45
2023/12/03 21:01:27;;;;;;;;;;;;;;;;;;4979092;28;19922;-44
2023/12/03 21:03:53;;;;;;;;;;;;;;;;;;4984028;28;19914;-47
2023/12/03 21:06:19;;;;;;;;;;;;;;;;;;4985656;28;19918;-46
2023/12/03 21:08:45;;;;;;;;;;;;;;;;;;4981347;28;19918;-46
2023/12/03 21:11:11;;;;;;;;;;;;;;;;;;4984743;28;19914;-46
2023/12/03 21:13:36;;;;;;;;;;;;;;;;;;4983673;28;19918;-46
2023/12/03 21:16:02;;;;;;;;;;;;;;;;;;4985264;28;19918;-48
2023/12/03 21:18:28;;;;;;;;;;;;;;;;;;4983106;28;19913;-47
2023/12/03 21:20:54;;;;;;;;;;;;;;;;;;4984866;28;19913;-45
2023/12/03 21:23:20;;;;;;;;;;;;;;;;;;4984748;28;20005;-45
2023/12/03 21:25:46;;;;;;;;;;;;;;;;;;4966171;28;19914;-46
2023/12/03 21:28:12;;;;;;;;;;;;;;;;;;4965420;28;20227;-46
2023/12/03 21:30:38;;;;;;;;;;;;;;;;;;4967741;28;19918;-44
2023/12/03 21:33:04;;;;;;;;;;;;;;;;;;4984909;28;20369;-46
2023/12/03 21:35:30;;;;;;;;;;;;;;;;;;4985619;28;19917;-45
2023/12/03 21:37:56;;;;;;;;;;;;;;;;;;4986515;28;20005;-47
2023/12/03 21:40:21;;;;;;;;;;;;;;;;;;4983908;28;19966;-44
2023/12/03 21:42:47;;;;;;;;;;;;;;;;;;4985155;28;19972;-47
2023/12/03 21:45:13;;;;;;;;;;;;;;;;;;4983721;28;19921;-44
2023/12/03 21:47:39;;;;;;;;;;;;;;;;;;4983344;28;19913;-45
2023/12/03 21:50:05;;;;;;;;;;;;;;;;;;4983981;28;19918;-45
2023/12/03 21:52:31;;;;;;;;;;;;;;;;;;4983646;28;20393;-44
2023/12/03 21:54:58;;;;;;;;;;;;;;;;;;4986149;28;20060;-45
2023/12/03 21:57:24;;;;;;;;;;;;;;;;;;4988558;28;20132;-44
2023/12/03 21:59:50;;;;;;;;;;;;;;;;;;4985340;28;19922;-45
2023/12/03 22:02:15;;;;;;;;;;;;;;;;;;4975937;28;19913;-42
2023/12/03 22:04:41;;;;;;;;;;;;;;;;;;4983896;28;19922;-43
2023/12/03 22:07:08;;;;;;;;;;;;;;;;;;4987978;28;19961;-43
2023/12/03 22:09:34;;;;;;;;;;;;;;;;;;4985869;28;20385;-42
2023/12/03 22:11:59;;;;;;;;;;;;;;;;;;4987403;28;19957;-44
2023/12/03 22:14:25;;;;;;;;;;;;;;;;;;4970811;28;19921;-43
2023/12/03 22:16:51;;;;;;;;;;;;;;;;;;4970802;28;19921;-42
2023/12/03 22:19:17;;;;;;;;;;;;;;;;;;4990201;28;19925;-42
2023/12/03 22:21:43;;;;;;;;;;;;;;;;;;4986973;28;19913;-43
2023/12/03 22:24:09;;;;;;;;;;;;;;;;;;4975804;28;19914;-42
2023/12/03 22:26:35;;;;;;;;;;;;;;;;;;4981093;28;19929;-43
2023/12/03 22:29:01;;;;;;;;;;;;;;;;;;4985656;28;19913;-42
2023/12/03 22:31:27;;;;;;;;;;;;;;;;;;4987062;28;20428;-42
2023/12/03 22:33:52;;;;;;;;;;;;;;;;;;4987185;28;19961;-42
2023/12/03 22:36:18;;;;;;;;;;;;;;;;;;4990144;28;19942;-42
2023/12/03 22:38:44;;;;;;;;;;;;;;;;;;4986822;28;19918;-42
2023/12/03 22:41:12;;;;;;;;;;;;;;;;;;4987784;28;19914;-42